Time;durP1;ratioP1;P1;durP2;ratioP2;P2;SDS_P1;SDS_P2;PMS_P1;PMS_P2;Temp;Humidity;BMP_temperature;BMP_pressure;BME280_temperature;BME280_humidity;BME280_pressure;Samples;Min_cycle;Max_cycle;Signal;HPM_P1;HPM_P2
2021/06/23 00:00:24;;;;;;;17.25;14.60;;;;;;;21.34;95.55;96808.09;5043755;28;20029;-70
2021/06/23 00:02:50;;;;;;;19.52;15.98;;;;;;;21.32;95.00;96804.94;5043917;28;20052;-71
2021/06/23 00:05:16;;;;;;;22.60;15.30;;;;;;;21.34;95.32;96801.69;5043861;28;20041;-71
2021/06/23 00:07:42;;;;;;;19.08;15.15;;;;;;;21.01;95.12;96746.69;5043977;28;20069;-69
2021/06/23 00:10:08;;;;;;;17.42;15.18;;;;;;;21.33;95.11;96795.25;5042985;28;20116;-68
2021/06/23 00:12:33;;;;;;;20.60;14.63;;;;;;;21.40;94.42;96806.31;5042974;28;20120;-70
2021/06/23 00:14:59;;;;;;;20.88;14.43;;;;;;;21.44;93.23;96806.19;5043062;28;20107;-70
2021/06/23 00:17:28;;;;;;;20.75;15.05;;;;;;;21.27;94.35;96780.13;5042359;28;20029;-71
2021/06/23 00:19:53;;;;;;;17.88;14.25;;;;;;;21.37;94.36;96793.09;5041187;28;20044;-70
2021/06/23 00:22:19;;;;;;;16.00;14.25;;;;;;;21.25;94.12;96793.88;5041168;28;20099;-70
2021/06/23 00:24:44;;;;;;;19.30;13.75;;;;;;;21.45;93.27;96802.94;5058047;28;20032;-69
2021/06/23 00:27:10;;;;;;;17.58;14.98;;;;;;;21.43;93.39;96805.41;5042450;28;20037;-70
2021/06/23 00:29:35;;;;;;;19.92;15.02;;;;;;;21.34;94.25;96802.44;5042991;28;20033;-70
2021/06/23 00:32:03;;;;;;;18.30;14.48;;;;;;;21.26;93.88;96792.63;5041912;28;20087;-70
2021/06/23 00:34:30;;;;;;;21.60;14.15;;;;;;;20.92;94.24;96750.91;5042995;28;20064;-70
2021/06/23 00:36:56;;;;;;;18.95;15.68;;;;;;;21.18;94.97;96811.00;5040069;28;20037;-69
2021/06/23 00:39:23;;;;;;;21.85;15.30;;;;;;;21.20;94.34;96794.41;5057906;28;20581;-69
2021/06/23 00:41:48;;;;;;;16.55;13.70;;;;;;;21.08;95.09;96795.16;5042515;28;20033;-69
2021/06/23 00:44:14;;;;;;;20.85;15.13;;;;;;;21.11;95.31;96794.28;5043614;28;20043;-69
2021/06/23 00:46:41;;;;;;;20.27;14.88;;;;;;;21.01;95.03;96797.41;5042905;28;20539;-69
2021/06/23 00:49:06;;;;;;;20.67;16.20;;;;;;;20.67;97.41;96790.22;5058573;28;20090;-69
2021/06/23 00:51:33;;;;;;;24.48;15.60;;;;;;;20.55;96.48;96750.75;5042765;28;20025;-69
2021/06/23 00:53:59;;;;;;;20.50;16.85;;;;;;;20.23;99.47;96762.03;5043697;28;20032;-70
2021/06/23 00:56:33;;;;;;;19.75;16.80;;;;;;;20.60;99.69;96804.47;5058042;28;20033;-69
2021/06/23 00:58:59;;;;;;;18.63;16.50;;;;;;;20.80;98.42;96812.81;5042981;28;20033;-69
2021/06/23 01:01:25;;;;;;;20.50;17.33;;;;;;;20.86;98.04;96813.84;5042828;28;20083;-70
2021/06/23 01:03:52;;;;;;;20.65;16.40;;;;;;;20.85;98.24;96815.06;5058725;28;20090;-69
2021/06/23 01:06:18;;;;;;;21.98;16.15;;;;;;;20.57;97.90;96767.97;5042722;28;20033;-69
2021/06/23 01:08:44;;;;;;;18.88;16.17;;;;;;;20.90;96.77;96811.72;5075088;28;20122;-70
2021/06/23 01:11:10;;;;;;;19.20;14.60;;;;;;;20.95;95.53;96808.38;5042584;28;20033;-68
2021/06/23 01:14:05;;;;;;;22.70;15.15;;;;;;;20.74;96.47;96801.28;5058352;28;20039;-69
2021/06/23 01:16:34;;;;;;;18.98;16.00;;;;;;;20.68;97.20;96805.88;5043844;28;20128;-69
2021/06/23 01:19:06;;;;;;;20.67;15.50;;;;;;;20.42;97.09;96769.59;5043229;28;20040;-69
2021/06/23 01:21:32;;;;;;;22.35;15.90;;;;;;;20.52;97.91;96813.53;5044889;28;20346;-69
2021/06/23 01:23:57;;;;;;;24.48;15.82;;;;;;;20.60;98.07;96809.31;5062261;28;20388;-69
2021/06/23 01:26:23;;;;;;;21.35;16.20;;;;;;;20.05;98.18;96725.09;5046556;28;20040;-69
2021/06/23 01:28:48;;;;;;;21.17;15.38;;;;;;;20.59;98.49;96802.09;5045546;28;20025;-69
2021/06/23 01:31:15;;;;;;;17.67;15.35;;;;;;;20.61;97.69;96788.41;5046477;28;20033;-69
2021/06/23 01:33:41;;;;;;;18.80;15.77;;;;;;;20.69;97.59;96799.00;5046750;28;20416;-67
2021/06/23 01:36:06;;;;;;;19.15;15.52;;;;;;;20.75;96.61;96800.03;5060933;28;20029;-69
2021/06/23 01:38:32;;;;;;;20.95;15.77;;;;;;;20.72;95.71;96783.28;5046699;28;20051;-69
2021/06/23 01:40:57;;;;;;;19.42;14.40;;;;;;;20.94;95.01;96806.78;5061409;28;20496;-68
2021/06/23 01:43:23;;;;;;;19.33;15.40;;;;;;;20.85;95.35;96806.63;5046746;28;20033;-68
2021/06/23 01:45:49;;;;;;;18.30;14.80;;;;;;;20.88;95.20;96802.94;5046113;28;20033;-69
2021/06/23 01:48:20;;;;;;;17.48;14.80;;;;;;;20.67;96.53;96781.00;5046300;28;20040;-68
2021/06/23 01:50:52;;;;;;;17.98;14.27;;;;;;;20.82;96.34;96793.44;5044392;28;20423;-68
2021/06/23 01:53:17;;;;;;;19.88;14.43;;;;;;;20.88;95.08;96802.94;5061506;28;20029;-69
2021/06/23 01:55:42;;;;;;;25.70;15.57;;;;;;;20.86;94.50;96799.78;5045835;28;20040;-69
2021/06/23 01:58:09;;;;;;;18.20;14.82;;;;;;;20.55;94.84;96750.75;5046833;28;20081;-69
2021/06/23 02:00:56;;;;;;;17.67;13.85;;;;;;;20.22;95.33;96693.75;5045772;28;20033;-69
2021/06/23 02:03:39;;;;;;;20.45;13.93;;;;;;;20.80;95.53;96779.03;5046204;28;20045;-69
2021/06/23 02:06:07;;;;;;;20.08;14.68;;;;;;;20.79;95.70;96774.63;5045591;28;20033;-69
2021/06/23 02:09:01;;;;;;;21.15;15.32;;;;;;;20.71;96.33;96776.03;5061056;28;20579;-69
2021/06/23 02:11:33;;;;;;;24.33;14.93;;;;;;;20.74;95.95;96784.41;5045494;28;20036;-66
2021/06/23 02:14:04;;;;;;;19.15;13.73;;;;;;;20.77;95.06;96785.56;5045951;28;20037;-69
2021/06/23 02:16:33;;;;;;;19.38;13.65;;;;;;;20.71;95.71;96793.72;5045582;28;20535;-69
2021/06/23 02:19:02;;;;;;;18.83;13.75;;;;;;;20.73;96.64;96798.91;5046054;28;20037;-68
2021/06/23 02:21:30;;;;;;;22.30;13.88;;;;;;;20.53;97.13;96809.50;5044429;28;20036;-69
2021/06/23 02:23:56;;;;;;;33.30;17.95;;;;;;;20.28;100.00;96775.59;5045494;28;20045;-68
2021/06/23 02:26:23;;;;;;;29.83;18.52;;;;;;;20.03;100.00;96750.84;5045389;28;20040;-67
2021/06/23 02:28:49;;;;;;;30.75;19.65;;;;;;;19.94;100.00;96773.16;5045616;28;20033;-67
2021/06/23 02:31:16;;;;;;;22.75;17.70;;;;;;;19.82;100.00;96759.00;5060329;28;20385;-68
2021/06/23 02:33:42;;;;;;;22.83;17.77;;;;;;;19.82;100.00;96770.25;5045516;28;20033;-68
2021/06/23 02:36:08;;;;;;;29.70;18.80;;;;;;;19.66;100.00;96764.59;5045477;28;20064;-68
2021/06/23 02:38:33;;;;;;;25.15;19.95;;;;;;;19.22;100.00;96693.72;5045788;28;20040;-68
2021/06/23 02:40:59;;;;;;;22.50;18.25;;;;;;;19.80;100.00;96798.00;5045260;28;20174;-68
2021/06/23 02:43:25;;;;;;;32.78;22.02;;;;;;;19.81;100.00;96785.53;5043542;28;20487;-68
2021/06/23 02:45:50;;;;;;;29.40;21.35;;;;;;;19.39;100.00;96776.81;5044793;28;20029;-69
2021/06/23 02:48:20;;;;;;;39.45;26.75;;;;;;;19.34;100.00;96802.63;5045116;28;20036;-67
2021/06/23 02:50:59;;;;;;;46.22;32.75;;;;;;;19.42;100.00;96759.13;5044848;28;20072;-68
2021/06/23 02:53:29;;;;;;;37.47;25.13;;;;;;;19.30;100.00;96768.19;5045328;28;20029;-69
2021/06/23 02:55:56;;;;;;;35.83;22.05;;;;;;;19.65;100.00;96794.72;5044883;28;20037;-67
2021/06/23 02:58:22;;;;;;;32.88;21.60;;;;;;;19.65;100.00;96836.09;5043753;28;20454;-68
2021/06/23 03:00:50;;;;;;;31.27;21.35;;;;;;;19.09;100.00;96683.59;5044648;28;20442;-68
2021/06/23 03:03:15;;;;;;;27.40;20.35;;;;;;;20.01;100.00;96800.34;5059753;28;20045;-67
2021/06/23 03:05:41;;;;;;;34.42;21.92;;;;;;;20.11;100.00;96793.63;5059898;28;20041;-68
2021/06/23 03:08:07;;;;;;;23.20;19.73;;;;;;;20.16;100.00;96802.38;5044802;28;20035;-68
2021/06/23 03:10:33;;;;;;;29.25;18.90;;;;;;;20.04;100.00;96783.38;5043053;28;20041;-69
2021/06/23 03:12:58;;;;;;;28.33;19.90;;;;;;;19.74;100.00;96746.34;5044636;28;20118;-70
2021/06/23 03:15:24;;;;;;;27.80;21.00;;;;;;;19.95;100.00;96796.47;5044262;28;20033;-70
2021/06/23 03:17:49;;;;;;;30.67;22.00;;;;;;;19.68;100.00;96751.69;5059593;28;20098;-70
2021/06/23 03:20:15;;;;;;;26.85;22.58;;;;;;;19.99;100.00;96791.53;5044112;28;20476;-68
2021/06/23 03:22:41;;;;;;;30.27;22.95;;;;;;;20.13;100.00;96788.38;5044168;28;20053;-68
2021/06/23 03:25:07;;;;;;;28.92;23.98;;;;;;;20.30;100.00;96806.88;5044191;28;20101;-68
2021/06/23 03:27:32;;;;;;;29.38;22.00;;;;;;;20.14;100.00;96778.75;5043988;28;20419;-68
2021/06/23 03:29:58;;;;;;;30.58;23.30;;;;;;;20.43;100.00;96793.69;5042763;28;20037;-68
2021/06/23 03:32:23;;;;;;;28.23;21.35;;;;;;;20.46;100.00;96815.31;5042004;28;20039;-67
2021/06/23 03:34:49;;;;;;;28.85;19.95;;;;;;;20.54;100.00;96816.72;5045182;28;20037;-69
2021/06/23 03:37:15;;;;;;;31.08;21.23;;;;;;;20.37;100.00;96803.88;5043951;28;20047;-68
2021/06/23 03:39:41;;;;;;;31.77;22.30;;;;;;;19.77;100.00;96784.84;5053590;28;20032;-69
2021/06/23 03:42:07;;;;;;;29.65;24.00;;;;;;;20.32;100.00;96827.72;5043500;28;20115;-69
2021/06/23 03:44:33;;;;;;;28.55;21.67;;;;;;;20.67;100.00;96837.28;5043608;28;20035;-69
2021/06/23 03:47:01;;;;;;;25.48;20.90;;;;;;;20.40;100.00;96777.69;5043564;28;20037;-69
2021/06/23 03:49:27;;;;;;;30.73;21.65;;;;;;;20.30;100.00;96726.06;5042710;28;20025;-68
2021/06/23 03:51:52;;;;;;;27.25;20.70;;;;;;;21.04;100.00;96817.00;5043892;28;20454;-67
2021/06/23 03:54:18;;;;;;;26.13;19.20;;;;;;;21.28;100.00;96829.59;5044712;28;20032;-67
2021/06/23 03:56:43;;;;;;;27.13;19.85;;;;;;;21.35;100.00;96809.69;5044133;28;20039;-69
2021/06/23 03:59:09;;;;;;;28.00;19.08;;;;;;;21.58;100.00;96817.84;5043912;28;20032;-69
2021/06/23 04:01:34;;;;;;;21.45;17.98;;;;;;;21.78;100.00;96815.66;5043263;28;20041;-69
2021/06/23 04:04:00;;;;;;;26.00;18.15;;;;;;;21.99;100.00;96815.00;5044023;28;20827;-68
2021/06/23 04:06:28;;;;;;;20.05;16.48;;;;;;;21.73;100.00;96762.63;5043320;28;20033;-68
2021/06/23 04:08:53;;;;;;;23.23;16.60;;;;;;;22.09;100.00;96824.38;5043577;28;20037;-70
2021/06/23 04:11:19;;;;;;;24.05;17.45;;;;;;;21.25;100.00;96709.34;5043212;28;20037;-70
2021/06/23 04:13:44;;;;;;;22.90;18.38;;;;;;;22.08;100.00;96834.84;5043808;28;20127;-69
2021/06/23 04:16:10;;;;;;;20.92;18.63;;;;;;;22.03;100.00;96826.97;5058871;28;20029;-68
2021/06/23 04:18:35;;;;;;;23.63;18.40;;;;;;;21.88;100.00;96775.06;5041810;28;20033;-69
2021/06/23 04:21:01;;;;;;;22.77;17.65;;;;;;;21.88;99.96;96748.88;5058503;28;20041;-70
2021/06/23 04:23:26;;;;;;;24.15;17.75;;;;;;;22.55;98.24;96820.06;5058183;28;20107;-69
2021/06/23 04:25:52;;;;;;;24.58;17.90;;;;;;;22.63;97.09;96812.94;5042969;28;20033;-67
2021/06/23 04:28:17;;;;;;;18.88;16.67;;;;;;;22.67;97.80;96820.03;5043422;28;20213;-68
2021/06/23 04:30:43;;;;;;;22.40;17.25;;;;;;;21.74;97.95;96651.41;5057775;28;20048;-69
2021/06/23 04:33:08;;;;;;;22.05;16.95;;;;;;;22.94;98.14;96822.34;5043583;28;20119;-69
2021/06/23 04:35:34;;;;;;;19.80;16.80;;;;;;;23.05;95.31;96811.44;5043228;28;20029;-70
2021/06/23 04:37:59;;;;;;;22.50;16.05;;;;;;;22.70;95.15;96761.88;5041445;28;20029;-68
2021/06/23 04:40:25;;;;;;;20.00;16.02;;;;;;;23.09;96.70;96801.63;5042601;28;20033;-67
2021/06/23 04:42:50;;;;;;;17.45;15.65;;;;;;;23.34;94.10;96806.38;5042789;28;20041;-67
2021/06/23 04:45:16;;;;;;;19.92;14.77;;;;;;;23.48;93.59;96811.50;5042365;28;20427;-68
2021/06/23 04:47:42;;;;;;;18.73;15.45;;;;;;;23.35;93.51;96779.69;5043004;28;20388;-69
2021/06/23 04:50:09;;;;;;;21.02;15.27;;;;;;;22.09;93.52;96554.31;5043310;28;20041;-69
2021/06/23 04:52:35;;;;;;;20.60;16.73;;;;;;;23.73;94.65;96808.53;5042782;28;20048;-69
2021/06/23 04:55:01;;;;;;;20.77;16.42;;;;;;;23.20;97.60;96807.69;5043994;28;20037;-68
2021/06/23 04:57:26;;;;;;;22.85;18.70;;;;;;;22.96;100.00;96825.50;5046627;28;20138;-68
2021/06/23 04:59:52;;;;;;;25.13;17.38;;;;;;;22.51;100.00;96822.19;5045004;28;20093;-68
2021/06/23 05:02:17;;;;;;;26.20;21.00;;;;;;;22.48;100.00;96838.00;5045011;28;20028;-70
2021/06/23 05:04:43;;;;;;;27.05;21.42;;;;;;;22.68;100.00;96826.50;5047090;28;20502;-70
2021/06/23 05:07:08;;;;;;;24.95;20.42;;;;;;;22.97;100.00;96835.56;5046762;28;20037;-70
2021/06/23 05:09:36;;;;;;;22.23;19.83;;;;;;;22.83;100.00;96838.88;5045666;28;20569;-70
2021/06/23 05:12:02;;;;;;;25.98;19.42;;;;;;;22.85;100.00;96808.13;5041640;28;20049;-68
2021/06/23 05:14:27;;;;;;;27.42;19.00;;;;;;;23.19;100.00;96800.44;5047083;28;20052;-70
2021/06/23 05:16:53;;;;;;;23.20;18.15;;;;;;;23.71;96.77;96836.50;5046479;28;20477;-68
2021/06/23 05:19:20;;;;;;;22.38;17.50;;;;;;;23.98;97.23;96842.34;5047440;28;20545;-70
2021/06/23 05:21:45;;;;;;;19.50;17.40;;;;;;;24.09;94.93;96816.47;5044883;28;20112;-70
2021/06/23 05:24:11;;;;;;;20.02;15.95;;;;;;;24.64;92.00;96850.19;5045411;28;20633;-69
2021/06/23 05:26:37;;;;;;;17.70;15.65;;;;;;;24.13;89.22;96732.97;5046899;28;20087;-69
2021/06/23 05:29:04;;;;;;;23.30;16.35;;;;;;;25.01;85.75;96808.53;5046798;28;20532;-68
2021/06/23 05:31:30;;;;;;;18.83;15.98;;;;;;;25.44;83.30;96852.84;5046501;28;20033;-70
2021/06/23 05:33:55;;;;;;;18.17;15.02;;;;;;;25.65;82.27;96843.41;5046674;28;20044;-70
2021/06/23 05:36:21;;;;;;;24.67;15.25;;;;;;;25.89;81.30;96847.16;5044603;28;20029;-68
2021/06/23 05:38:46;;;;;;;25.13;15.48;;;;;;;26.04;81.37;96846.03;5046413;28;20041;-69
2021/06/23 05:41:12;;;;;;;20.65;14.93;;;;;;;26.05;80.13;96846.81;5044491;28;20033;-70
2021/06/23 05:43:38;;;;;;;18.15;14.90;;;;;;;26.20;78.67;96842.84;5046477;28;20523;-70
2021/06/23 05:46:03;;;;;;;19.98;14.98;;;;;;;26.46;78.86;96854.56;5046259;28;20116;-70
2021/06/23 05:48:29;;;;;;;17.65;15.85;;;;;;;26.51;79.09;96811.28;5044692;28;20586;-70
2021/06/23 05:50:54;;;;;;;23.15;16.08;;;;;;;26.98;78.56;96854.00;5045585;28;20020;-71
2021/06/23 05:53:20;;;;;;;17.58;14.32;;;;;;;27.22;76.80;96842.63;5033714;28;20033;-61
2021/06/23 05:55:45;;;;;;;18.77;16.35;;;;;;;27.20;74.90;96802.50;5035011;28;20030;-62
2021/06/23 05:58:11;;;;;;;17.73;15.32;;;;;;;27.40;76.12;96866.06;5074269;28;20130;-69
2021/06/23 06:00:37;;;;;;;18.85;15.55;;;;;;;27.23;75.73;96866.94;5036964;28;20033;-63
2021/06/23 06:03:06;;;;;;;26.40;15.90;;;;;;;27.15;74.67;96815.34;5028821;28;20418;-62
2021/06/23 06:05:32;;;;;;;21.02;13.82;;;;;;;27.80;74.65;96854.97;5024491;28;20034;-61
2021/06/23 06:07:57;;;;;;;22.10;16.48;;;;;;;27.70;74.68;96782.31;5023928;28;20045;-61
2021/06/23 06:10:23;;;;;;;22.33;13.32;;;;;;;28.47;69.17;96856.19;5026946;28;20028;-62
2021/06/23 06:12:48;;;;;;;21.50;14.65;;;;;;;28.29;69.33;96850.69;5034962;28;20132;-68
2021/06/23 06:15:14;;;;;;;22.10;14.43;;;;;;;26.92;69.24;96591.50;5043189;28;20513;-61
2021/06/23 06:17:40;;;;;;;21.00;13.57;;;;;;;28.04;68.53;96758.84;5060457;28;20067;-61
2021/06/23 06:20:07;;;;;;;18.42;13.55;;;;;;;28.73;68.44;96815.16;5044699;28;20940;-65
2021/06/23 06:22:33;;;;;;;19.38;14.38;;;;;;;28.80;68.46;96811.09;5045079;28;20056;-59
2021/06/23 06:24:59;;;;;;;21.00;16.30;;;;;;;29.13;70.78;96852.28;5045716;28;20041;-59
2021/06/23 06:27:25;;;;;;;21.38;15.55;;;;;;;29.04;68.99;96834.50;5043007;28;20480;-65
2021/06/23 06:29:51;;;;;;;21.85;15.10;;;;;;;29.51;68.91;96860.59;5041453;28;20025;-67
2021/06/23 06:32:16;;;;;;;21.17;14.98;;;;;;;29.73;66.59;96848.69;5044690;28;20108;-69
2021/06/23 06:34:42;;;;;;;22.55;14.48;;;;;;;29.95;66.21;96853.84;5045428;28;20411;-70
2021/06/23 06:37:07;;;;;;;22.08;14.05;;;;;;;29.70;63.12;96768.94;5042345;28;20037;-60
2021/06/23 06:39:32;;;;;;;21.15;14.48;;;;;;;30.21;62.47;96860.38;5025749;28;20044;-61
2021/06/23 06:41:58;;;;;;;17.35;12.68;;;;;;;30.36;61.55;96833.25;5036582;28;20095;-66
2021/06/23 06:46:44;;;;;;;22.00;13.82;;;;;;;30.58;61.10;96821.97;5054790;28;20442;-60
2021/06/23 06:49:09;;;;;;;20.17;14.48;;;;;;;30.42;62.40;96816.91;5040501;28;20104;-68
2021/06/23 06:51:35;;;;;;;23.13;14.07;;;;;;;30.71;61.96;96819.44;5039721;28;20148;-68
2021/06/23 06:54:01;;;;;;;20.08;13.55;;;;;;;30.95;61.20;96822.75;5039045;28;20037;-68
2021/06/23 06:56:26;;;;;;;21.63;13.40;;;;;;;31.50;60.74;96855.88;5037820;28;20583;-68
2021/06/23 06:58:52;;;;;;;23.40;13.38;;;;;;;31.19;59.12;96841.63;5039479;28;20238;-58
2021/06/23 07:01:18;;;;;;;24.17;14.85;;;;;;;31.34;61.32;96859.44;5040301;28;20044;-66
2021/06/23 07:03:43;;;;;;;20.13;14.93;;;;;;;31.26;61.94;96861.19;5039940;28;20172;-59
2021/06/23 07:06:08;;;;;;;20.30;14.68;;;;;;;31.35;61.00;96843.81;5037891;28;20041;-60
2021/06/23 07:08:34;;;;;;;22.38;12.65;;;;;;;31.81;60.46;96847.13;5039397;28;20109;-66
2021/06/23 07:10:59;;;;;;;20.10;12.63;;;;;;;31.98;57.96;96834.44;5039616;28;20045;-66
2021/06/23 07:13:25;;;;;;;25.20;12.07;;;;;;;32.32;55.63;96858.19;5039647;28;20048;-65
2021/06/23 07:15:50;;;;;;;25.27;12.23;;;;;;;31.43;51.82;96673.06;5038670;28;20044;-70
2021/06/23 07:18:16;;;;;;;28.45;10.70;;;;;;;32.77;49.01;96865.53;5037875;28;20543;-66
2021/06/23 07:20:41;;;;;;;20.98;10.98;;;;;;;32.65;50.83;96854.59;5039146;28;20041;-60
2021/06/23 07:23:07;;;;;;;23.35;11.00;;;;;;;32.16;50.83;96821.69;5039183;28;20025;-61
2021/06/23 07:25:32;;;;;;;25.15;10.88;;;;;;;32.62;49.21;96844.94;5039415;28;20044;-61
2021/06/23 07:27:58;;;;;;;22.70;10.38;;;;;;;32.81;48.98;96854.59;5039748;28;20033;-58
2021/06/23 07:30:24;;;;;;;21.77;11.90;;;;;;;32.33;49.84;96800.31;5039400;28;20129;-66
2021/06/23 07:32:56;;;;;;;24.55;10.88;;;;;;;32.08;48.79;96763.31;5039081;28;20029;-61
2021/06/23 07:38:13;;;;;;;23.27;11.05;;;;;;;32.91;49.54;96853.03;5039414;28;20075;-67
2021/06/23 07:43:11;;;;;;;25.73;12.35;;;;;;;32.58;50.36;96858.75;5027781;28;19921;-61
2021/06/23 07:45:38;;;;;;;28.45;11.77;;;;;;;32.73;48.60;96836.31;5036893;28;20598;-68
2021/06/23 07:48:04;;;;;;;19.75;10.68;;;;;;;32.27;47.90;96787.28;5039144;28;20396;-66
2021/06/23 07:50:37;;;;;;;23.67;12.00;;;;;;;32.39;48.34;96754.44;5034713;28;20031;-64
2021/06/23 07:53:14;;;;;;;26.35;11.52;;;;;;;32.77;47.93;96850.41;5070880;28;20037;-68
2021/06/23 08:01:29;;;;;;;28.20;12.13;;;;;;;32.61;47.86;96857.75;5025187;28;20119;-62
2021/06/23 08:09:17;;;;;;;24.83;11.48;;;;;;;32.92;48.26;96871.03;5026414;28;20041;-63
2021/06/23 08:11:46;;;;;;;27.08;11.48;;;;;;;32.89;47.85;96826.94;5025613;28;20541;-69
2021/06/23 08:14:11;;;;;;;25.20;10.38;;;;;;;33.49;46.61;96863.38;5028221;28;20048;-62
2021/06/23 08:16:37;;;;;;;25.92;11.15;;;;;;;33.35;46.91;96781.13;5023894;28;20037;-60
2021/06/23 08:19:04;;;;;;;26.33;11.32;;;;;;;33.45;45.06;96782.41;5024437;28;20116;-60
2021/06/23 08:21:30;;;;;;;25.85;11.48;;;;;;;33.42;46.13;96874.59;5034824;28;20566;-69
2021/06/23 08:23:55;;;;;;;25.33;11.95;;;;;;;33.72;47.05;96864.84;5030887;28;20033;-71
2021/06/23 08:26:21;;;;;;;23.88;12.75;;;;;;;33.81;46.90;96848.59;5037498;28;20041;-63
2021/06/23 08:28:46;;;;;;;30.98;12.30;;;;;;;33.61;45.70;96846.84;5045830;28;20044;-61
2021/06/23 08:31:13;;;;;;;24.67;11.98;;;;;;;33.58;44.42;96876.63;5043923;28;20056;-68
2021/06/23 08:33:38;;;;;;;25.13;11.13;;;;;;;33.07;46.25;96814.88;5027124;28;20118;-62
2021/06/23 08:36:04;;;;;;;25.00;11.10;;;;;;;34.08;45.37;96879.31;5024901;28;20033;-71
2021/06/23 08:38:30;;;;;;;32.63;11.32;;;;;;;33.56;43.73;96775.84;5025560;28;20488;-69
2021/06/23 08:40:55;;;;;;;28.65;9.52;;;;;;;33.83;44.50;96805.72;5023157;28;20038;-69
2021/06/23 08:43:21;;;;;;;29.10;11.60;;;;;;;34.15;43.69;96855.75;5024692;28;20033;-69
2021/06/23 08:45:47;;;;;;;21.00;10.82;;;;;;;33.65;43.53;96810.78;5024173;28;20064;-61
2021/06/23 08:48:13;;;;;;;29.27;11.25;;;;;;;33.62;42.03;96820.44;5024400;28;20032;-68
2021/06/23 08:50:39;;;;;;;31.38;10.70;;;;;;;34.23;42.23;96891.25;5022802;28;20483;-68
2021/06/23 08:53:05;;;;;;;26.52;10.25;;;;;;;33.21;41.00;96721.91;5024250;28;20025;-67
2021/06/23 08:55:30;;;;;;;23.70;10.02;;;;;;;32.64;42.58;96700.97;5022057;28;20052;-59
2021/06/23 08:57:58;;;;;;;28.05;10.82;;;;;;;33.90;42.61;96882.81;5024572;28;20033;-68
2021/06/23 09:00:24;;;;;;;35.53;10.77;;;;;;;33.80;41.22;96870.03;5023819;28;20037;-68
2021/06/23 09:02:50;;;;;;;27.55;10.27;;;;;;;32.49;41.83;96721.34;5022818;28;20408;-63
2021/06/23 09:05:18;;;;;;;70.75;29.30;;;;;;;32.89;44.19;96881.50;5024734;28;20091;-60
2021/06/23 09:07:49;;;;;;;39.88;11.45;;;;;;;32.60;43.36;96830.34;5023140;28;20122;-70
2021/06/23 09:10:20;;;;;;;38.70;9.95;;;;;;;33.07;42.94;96877.28;5023013;28;20068;-70
2021/06/23 09:13:01;;;;;;;36.90;11.50;;;;;;;32.82;41.71;96876.22;5025412;28;20033;-61
2021/06/23 09:16:04;;;;;;;31.63;11.98;;;;;;;33.11;41.98;96838.38;5024988;28;20029;-69
2021/06/23 09:18:36;;;;;;;32.35;9.52;;;;;;;33.14;41.28;96791.38;5024604;28;20033;-60
2021/06/23 09:21:06;;;;;;;43.35;9.82;;;;;;;33.20;40.16;96852.44;5024143;28;20044;-68
2021/06/23 09:24:03;;;;;;;30.48;10.27;;;;;;;33.08;40.95;96861.63;5022976;28;20057;-61
2021/06/23 09:26:37;;;;;;;30.10;9.70;;;;;;;33.30;39.87;96865.22;5023430;28;20099;-63
2021/06/23 09:29:08;;;;;;;28.67;12.85;;;;;;;33.27;40.70;96857.66;5024744;28;20037;-60
2021/06/23 09:32:05;;;;;;;27.35;8.77;;;;;;;33.28;42.58;96864.97;5024336;28;20116;-67
2021/06/23 09:34:41;;;;;;;34.85;12.15;;;;;;;32.86;42.77;96865.28;5021943;28;20034;-61
2021/06/23 09:37:29;;;;;;;26.38;9.50;;;;;;;32.92;43.33;96859.56;5024336;28;20575;-58
2021/06/23 09:40:13;;;;;;;25.58;9.52;;;;;;;32.23;44.49;96867.06;5020047;28;20587;-62
2021/06/23 09:42:46;;;;;;;26.85;10.00;;;;;;;30.38;45.88;96581.91;5039578;28;20029;-68
2021/06/23 09:45:15;;;;;;;29.17;10.85;;;;;;;32.18;45.34;96876.44;5043323;28;20060;-66
2021/06/23 09:47:41;;;;;;;33.67;10.45;;;;;;;31.91;45.94;96791.97;5033185;28;20111;-60
2021/06/23 09:50:18;;;;;;;21.58;9.10;;;;;;;31.86;47.72;96821.38;5024182;28;20553;-59
2021/06/23 09:53:08;;;;;;;30.23;9.93;;;;;;;32.05;46.77;96861.81;5022981;28;20083;-67
2021/06/23 09:55:46;;;;;;;36.17;10.73;;;;;;;32.27;47.41;96858.97;5021969;28;20504;-70
2021/06/23 09:58:19;;;;;;;28.45;9.50;;;;;;;32.47;46.92;96850.16;5021599;28;20049;-66
2021/06/23 10:01:09;;;;;;;33.28;10.48;;;;;;;32.59;46.34;96846.00;5023434;28;20068;-67
2021/06/23 10:04:05;;;;;;;32.20;10.60;;;;;;;32.69;45.30;96838.66;5023906;28;20092;-67
2021/06/23 10:06:45;;;;;;;40.78;11.02;;;;;;;32.85;44.31;96855.09;5022694;28;20124;-66
2021/06/23 10:09:20;;;;;;;28.13;9.50;;;;;;;31.52;44.19;96704.34;5023361;28;20037;-62
2021/06/23 10:11:47;;;;;;;26.52;10.60;;;;;;;32.87;43.88;96851.69;5010696;28;20049;-62
2021/06/23 10:14:13;;;;;;;35.42;9.75;;;;;;;33.27;43.63;96851.13;5023042;28;20041;-61
2021/06/23 10:16:39;;;;;;;28.85;9.52;;;;;;;32.92;44.66;96854.59;4643790;28;9999723;-62
2021/06/23 10:19:06;;;;;;;29.27;9.43;;;;;;;33.07;43.48;96845.72;4964771;28;20070;-65
2021/06/23 10:21:32;;;;;;;33.03;9.70;;;;;;;33.24;41.11;96847.22;4963785;28;20076;-61
2021/06/23 10:23:59;;;;;;;44.85;9.27;;;;;;;33.49;38.43;96851.88;4964330;28;20199;-61
2021/06/23 10:26:29;;;;;;;36.33;9.00;;;;;;;33.32;37.40;96816.63;4964779;28;20501;-62
2021/06/23 10:28:56;;;;;;;29.17;9.32;;;;;;;33.47;37.70;96813.47;4979026;28;20122;-59
2021/06/23 10:31:27;;;;;;;37.05;9.00;;;;;;;33.51;38.94;96803.25;4964070;28;20050;-67
2021/06/23 10:33:54;;;;;;;36.95;9.23;;;;;;;32.87;37.91;96719.66;4963450;28;20031;-61
2021/06/23 10:36:22;;;;;;;35.38;9.07;;;;;;;33.29;38.87;96739.38;4964286;28;20039;-64
2021/06/23 10:38:49;;;;;;;30.65;9.05;;;;;;;34.19;38.27;96850.50;4963862;28;20117;-68
2021/06/23 10:41:16;;;;;;;39.88;9.02;;;;;;;34.11;38.26;96832.25;4962723;28;20134;-61
2021/06/23 10:43:43;;;;;;;41.60;9.52;;;;;;;33.87;38.38;96837.84;4964125;28;20043;-61
2021/06/23 10:46:10;;;;;;;33.85;9.70;;;;;;;33.89;38.12;96838.09;4966096;28;20619;-62
2021/06/23 10:48:57;;;;;;;28.98;8.75;;;;;;;33.29;40.16;96843.53;4964533;28;20137;-65
2021/06/23 10:51:27;;;;;;;34.25;9.10;;;;;;;33.28;40.26;96773.06;4961766;28;20089;-59
2021/06/23 10:53:54;;;;;;;38.88;11.00;;;;;;;34.08;39.06;96836.19;4964228;28;20465;-62
2021/06/23 10:56:39;;;;;;;28.20;9.75;;;;;;;33.94;39.26;96845.94;4964542;28;20445;-63
2021/06/23 10:59:36;;;;;;;44.72;8.85;;;;;;;33.86;36.47;96845.69;4963233;28;20117;-59
2021/06/23 11:02:10;;;;;;;40.35;9.70;;;;;;;34.03;36.40;96840.66;4961677;28;20049;-61
2021/06/23 11:05:00;;;;;;;38.47;9.35;;;;;;;34.02;36.88;96844.06;4965131;28;20057;-66
2021/06/23 11:07:44;;;;;;;31.80;8.32;;;;;;;33.90;37.20;96856.94;4963881;28;20427;-60
2021/06/23 11:10:13;;;;;;;27.75;9.25;;;;;;;34.18;37.10;96846.03;4977795;28;20034;-65
2021/06/23 11:12:50;;;;;;;37.15;9.32;;;;;;;34.29;37.20;96831.59;4963918;28;20034;-58
2021/06/23 11:15:27;;;;;;;29.90;9.85;;;;;;;34.42;38.51;96815.31;4964126;28;20195;-65
2021/06/23 11:17:55;;;;;;;40.10;10.68;;;;;;;34.65;37.53;96836.81;4962696;28;20112;-67
2021/06/23 11:20:20;;;;;;;36.53;10.43;;;;;;;34.22;37.13;96843.69;4963846;28;20042;-66
2021/06/23 11:22:50;;;;;;;35.40;9.82;;;;;;;33.47;37.58;96842.22;4964322;28;20484;-68
2021/06/23 11:25:34;;;;;;;28.30;9.18;;;;;;;33.55;38.44;96765.63;4964353;28;20754;-68
2021/06/23 11:28:09;;;;;;;22.63;9.00;;;;;;;33.92;39.66;96848.56;4964465;28;20131;-62
2021/06/23 11:30:55;;;;;;;30.45;10.45;;;;;;;33.75;41.23;96846.53;4963873;28;20043;-67
2021/06/23 11:33:26;;;;;;;29.23;9.68;;;;;;;33.63;43.08;96856.53;4967345;28;20489;-62
2021/06/23 11:36:01;;;;;;;34.17;10.00;;;;;;;32.82;46.95;96844.66;4966888;28;20058;-67
2021/06/23 11:38:27;;;;;;;32.45;11.98;;;;;;;33.48;44.64;96847.44;4966294;28;20118;-64
2021/06/23 11:40:55;;;;;;;32.65;11.32;;;;;;;33.20;46.58;96838.09;4967339;28;20521;-62